createdAt,value
2019-01-24T00:00:16.633Z,63.40
2019-01-24T00:02:18.297Z,65.40
2019-01-24T00:04:20.227Z,65.40
2019-01-24T00:06:21.905Z,67.30
2019-01-24T00:08:23.850Z,62.20
2019-01-24T00:10:25.487Z,62.60
2019-01-24T00:12:27.140Z,66.10
2019-01-24T00:14:28.812Z,65.30
2019-01-24T00:16:30.560Z,65.40
2019-01-24T00:18:32.257Z,66.50
2019-01-24T00:20:34.269Z,65.70
2019-01-24T00:22:35.925Z,61.20
2019-01-24T00:24:37.580Z,61.10
2019-01-24T00:26:39.249Z,61.10
2019-01-24T00:28:40.897Z,63.20
2019-01-24T00:30:42.536Z,66.00
2019-01-24T00:32:44.482Z,62.70
2019-01-24T00:34:46.132Z,60.50
2019-01-24T00:36:47.793Z,65.10
2019-01-24T00:38:49.464Z,62.80
2019-01-24T00:40:51.099Z,61.70
2019-01-24T00:42:52.765Z,60.50
2019-01-24T00:44:54.416Z,62.10
2019-01-24T00:46:56.059Z,61.80
2019-01-24T00:48:57.781Z,63.20
2019-01-24T00:50:59.428Z,62.60
2019-01-24T00:53:01.101Z,63.30
2019-01-24T00:55:03.901Z,63.70
2019-01-24T00:57:05.547Z,58.20
2019-01-24T00:59:07.204Z,61.10
2019-01-24T01:01:08.857Z,61.70
2019-01-24T01:03:10.517Z,58.00
2019-01-24T01:05:12.173Z,58.10
2019-01-24T01:07:13.837Z,60.70
2019-01-24T01:09:15.497Z,61.10
2019-01-24T01:11:17.136Z,65.00
2019-01-24T01:13:18.831Z,61.20
2019-01-24T01:15:20.493Z,59.90
2019-01-24T01:17:22.145Z,64.50
2019-01-24T01:19:23.805Z,61.80
2019-01-24T01:21:25.463Z,60.60
2019-01-24T01:23:27.125Z,62.40
2019-01-24T01:25:28.768Z,62.50
2019-01-24T01:27:30.458Z,62.20
2019-01-24T01:29:32.329Z,61.60
2019-01-24T01:31:34.289Z,61.00
2019-01-24T01:33:35.943Z,59.30
2019-01-24T01:35:37.933Z,61.00
2019-01-24T01:37:39.889Z,62.10
2019-01-24T01:39:41.839Z,59.00
2019-01-24T01:41:43.492Z,61.70
2019-01-24T01:43:45.152Z,60.70
2019-01-24T01:45:46.805Z,61.90
2019-01-24T01:47:48.868Z,62.40
2019-01-24T01:49:50.516Z,59.80
2019-01-24T01:51:52.169Z,60.00
2019-01-24T01:53:53.833Z,60.90
2019-01-24T01:55:55.485Z,58.90
2019-01-24T01:57:57.172Z,56.70
2019-01-24T01:59:58.901Z,56.20
2019-01-24T02:02:00.551Z,54.80
2019-01-24T02:04:02.212Z,56.20
2019-01-24T02:06:03.874Z,56.10
2019-01-24T02:08:05.553Z,55.40
2019-01-24T02:10:09.302Z,54.20
2019-01-24T02:12:11.240Z,56.20
2019-01-24T02:14:12.904Z,56.20
2019-01-24T02:16:14.556Z,53.20
2019-01-24T02:18:16.241Z,53.50
2019-01-24T02:20:19.839Z,55.90
2019-01-24T02:22:21.494Z,55.70
2019-01-24T02:24:23.148Z,56.40
2019-01-24T02:26:25.085Z,56.40
2019-01-24T02:28:26.793Z,54.10
2019-01-24T02:30:28.453Z,51.50
2019-01-24T02:32:30.417Z,51.60
2019-01-24T02:34:32.077Z,53.00
2019-01-24T02:36:33.721Z,50.50
2019-01-24T02:38:35.371Z,51.40
2019-01-24T02:40:37.036Z,49.50
2019-01-24T02:42:38.690Z,49.50
2019-01-24T02:44:40.353Z,49.50
2019-01-24T02:46:42.008Z,46.40
2019-01-24T02:48:43.667Z,48.90
2019-01-24T02:50:45.326Z,48.20
2019-01-24T02:52:46.971Z,50.20
2019-01-24T02:54:48.893Z,50.20
2019-01-24T02:56:50.545Z,51.60
2019-01-24T02:58:52.208Z,52.70
2019-01-24T03:00:53.857Z,50.00
2019-01-24T03:02:55.760Z,50.50
2019-01-24T03:04:57.414Z,51.60
2019-01-24T03:06:59.122Z,50.60
2019-01-24T03:09:00.789Z,51.60
2019-01-24T03:11:02.446Z,51.40
2019-01-24T03:13:04.360Z,52.30
2019-01-24T03:15:07.176Z,52.30
2019-01-24T03:17:09.108Z,52.40
2019-01-24T03:19:10.757Z,51.30
2019-01-24T03:21:12.417Z,55.10
2019-01-24T03:23:14.059Z,52.60
2019-01-24T03:25:15.844Z,52.80
2019-01-24T03:27:17.489Z,55.10
2019-01-24T03:29:19.145Z,53.80
2019-01-24T03:31:20.797Z,51.70
2019-01-24T03:33:22.726Z,51.80
2019-01-24T03:35:25.744Z,54.70
2019-01-24T03:37:27.670Z,53.60
2019-01-24T03:39:29.324Z,52.30
2019-01-24T03:41:31.277Z,52.10
2019-01-24T03:43:32.933Z,51.00
2019-01-24T03:45:34.588Z,50.70
2019-01-24T03:47:36.227Z,49.50
2019-01-24T03:49:38.183Z,51.60
2019-01-24T03:51:39.848Z,50.00
2019-01-24T03:53:41.496Z,50.10
2019-01-24T03:55:43.166Z,49.40
2019-01-24T03:57:44.809Z,47.20
2019-01-24T03:59:47.065Z,47.30
2019-01-24T04:01:48.717Z,47.40
2019-01-24T04:03:50.361Z,46.40
2019-01-24T04:05:52.026Z,48.60
2019-01-24T04:07:53.682Z,48.10
2019-01-24T04:09:55.671Z,50.90
2019-01-24T04:11:57.593Z,50.20
2019-01-24T04:13:59.351Z,47.50
2019-01-24T04:16:01.297Z,48.20
2019-01-24T04:18:03.227Z,50.30
2019-01-24T04:20:05.328Z,49.20
2019-01-24T04:22:06.996Z,47.60
2019-01-24T04:24:08.657Z,48.10
2019-01-24T04:26:10.330Z,47.50
2019-01-24T04:28:11.963Z,43.60
2019-01-24T04:30:15.655Z,45.70
2019-01-24T04:32:17.299Z,44.70
2019-01-24T04:34:18.950Z,45.50
2019-01-24T04:36:20.619Z,46.60
2019-01-24T04:38:22.251Z,43.10
2019-01-24T04:40:23.903Z,45.30
2019-01-24T04:42:25.576Z,45.30
2019-01-24T04:44:27.230Z,44.00
2019-01-24T04:46:28.889Z,45.10
2019-01-24T04:48:30.547Z,46.10
2019-01-24T04:50:32.221Z,45.40
2019-01-24T04:52:34.200Z,45.00
2019-01-24T04:54:35.841Z,48.10
2019-01-24T04:56:37.505Z,47.50
2019-01-24T04:58:39.207Z,48.30
2019-01-24T05:00:40.913Z,47.50
2019-01-24T05:02:42.569Z,48.90
2019-01-24T05:04:44.208Z,47.70
2019-01-24T05:06:45.863Z,48.20
2019-01-24T05:08:47.513Z,47.50
2019-01-24T05:10:49.178Z,48.60
2019-01-24T05:12:51.120Z,48.10
2019-01-24T05:14:52.776Z,45.90
2019-01-24T05:16:54.729Z,45.40
2019-01-24T05:18:56.388Z,42.30
2019-01-24T05:20:58.057Z,44.50
2019-01-24T05:22:59.695Z,44.80
2019-01-24T05:25:01.366Z,44.60
2019-01-24T05:27:03.134Z,44.90
2019-01-24T05:29:04.768Z,45.50
2019-01-24T05:31:06.419Z,43.90
2019-01-24T05:33:08.077Z,43.90
2019-01-24T05:35:09.733Z,44.90
2019-01-24T05:37:11.394Z,45.60
2019-01-24T05:39:13.049Z,45.70
2019-01-24T05:41:14.704Z,47.60
2019-01-24T05:43:16.361Z,47.60
2019-01-24T05:45:18.030Z,48.40
2019-01-24T05:47:19.693Z,48.00
2019-01-24T05:49:21.338Z,48.30
2019-01-24T05:51:23.004Z,47.70
2019-01-24T05:53:24.660Z,47.70
2019-01-24T05:55:26.329Z,46.10
2019-01-24T05:57:27.976Z,47.20
2019-01-24T05:59:29.634Z,48.10
2019-01-24T06:01:31.993Z,47.90
2019-01-24T06:03:33.645Z,49.30
2019-01-24T06:05:41.582Z,49.10
2019-01-24T06:07:38.873Z,48.90
2019-01-24T06:09:40.520Z,49.70
2019-01-24T06:11:42.181Z,49.60
2019-01-24T06:13:43.820Z,49.70
2019-01-24T06:15:45.798Z,50.40
2019-01-24T06:17:47.475Z,51.30
2019-01-24T06:19:49.129Z,51.10
2019-01-24T06:21:51.066Z,50.80
2019-01-24T06:23:53.018Z,51.10
2019-01-24T06:25:54.676Z,51.40
2019-01-24T06:27:56.333Z,50.60
2019-01-24T06:29:58.089Z,52.40
2019-01-24T06:31:59.759Z,51.20
2019-01-24T06:34:01.401Z,50.70
2019-01-24T06:36:03.065Z,52.30
2019-01-24T06:38:04.985Z,51.30
2019-01-24T06:40:07.374Z,51.80
2019-01-24T06:42:09.028Z,51.10
2019-01-24T06:44:10.680Z,49.50
2019-01-24T06:46:12.337Z,51.10
2019-01-24T06:48:13.979Z,49.20
2019-01-24T06:50:16.031Z,51.50
2019-01-24T06:52:17.725Z,52.40
2019-01-24T06:54:19.632Z,50.80
2019-01-24T06:56:21.296Z,52.40
2019-01-24T06:58:22.951Z,53.50
2019-01-24T07:00:24.597Z,52.40
2019-01-24T07:02:26.309Z,53.50
2019-01-24T07:04:28.300Z,53.90
2019-01-24T07:06:29.962Z,54.80
2019-01-24T07:08:31.903Z,54.20
2019-01-24T07:10:33.849Z,53.10
2019-01-24T07:12:35.918Z,55.50
2019-01-24T07:14:38.165Z,55.80
2019-01-24T07:16:39.937Z,57.20
2019-01-24T07:18:41.575Z,59.10
2019-01-24T07:20:43.457Z,55.20
2019-01-24T07:22:45.615Z,55.50
2019-01-24T07:24:47.256Z,53.30
2019-01-24T07:26:49.076Z,52.60
2019-01-24T07:28:51.068Z,54.80
2019-01-24T07:30:52.824Z,51.40
2019-01-24T07:32:54.483Z,53.50
2019-01-24T07:34:56.301Z,54.10
2019-01-24T07:36:58.031Z,53.80
2019-01-24T07:39:00.028Z,55.90
2019-01-24T07:41:01.760Z,54.40
2019-01-24T07:43:05.346Z,54.90
2019-01-24T07:45:11.017Z,56.40
2019-01-24T07:47:12.732Z,53.60
2019-01-24T07:49:14.670Z,53.70
2019-01-24T07:51:16.537Z,53.60
2019-01-24T07:53:18.591Z,53.70
2019-01-24T07:55:21.582Z,52.90
2019-01-24T07:57:23.491Z,54.00
2019-01-24T07:59:25.154Z,51.90
2019-01-24T08:01:26.805Z,50.20
2019-01-24T08:03:28.474Z,49.00
2019-01-24T08:05:30.339Z,48.00
2019-01-24T08:07:32.100Z,48.00
2019-01-24T08:09:33.900Z,47.80
2019-01-24T08:11:36.813Z,47.30
2019-01-24T08:13:39.676Z,46.70
2019-01-24T08:15:41.806Z,46.30
2019-01-24T08:17:43.837Z,46.20
2019-01-24T08:19:45.626Z,46.00
2019-01-24T08:21:47.405Z,45.50
2019-01-24T08:23:49.697Z,42.80
2019-01-24T08:25:51.599Z,42.00
2019-01-24T08:27:53.372Z,41.70
2019-01-24T08:29:57.063Z,41.20
2019-01-24T08:31:58.772Z,42.00
2019-01-24T08:34:00.483Z,42.80
2019-01-24T08:36:02.327Z,41.40
2019-01-24T08:38:04.090Z,42.80
2019-01-24T08:40:07.051Z,43.30
2019-01-24T08:42:08.697Z,42.50
2019-01-24T08:44:10.615Z,43.80
2019-01-24T08:46:12.263Z,43.60
2019-01-24T08:48:16.986Z,42.80
2019-01-24T08:50:20.080Z,42.40
2019-01-24T08:52:21.953Z,39.30
2019-01-24T08:54:23.805Z,43.50
2019-01-24T08:56:25.619Z,45.80
2019-01-24T08:58:27.415Z,43.10
2019-01-24T09:00:29.208Z,40.50
2019-01-24T09:02:31.112Z,38.20
2019-01-24T09:04:35.643Z,40.80
2019-01-24T09:06:37.388Z,42.10
2019-01-24T09:08:39.075Z,42.60
2019-01-24T09:10:40.912Z,43.20
2019-01-24T09:12:43.070Z,37.70
2019-01-24T09:14:48.188Z,39.10
2019-01-24T09:16:49.828Z,37.00
2019-01-24T09:18:51.523Z,37.20
2019-01-24T09:20:53.160Z,38.30
2019-01-24T09:22:55.604Z,34.60
2019-01-24T09:24:57.909Z,33.60
2019-01-24T09:26:59.779Z,36.90
2019-01-24T09:29:04.724Z,35.70
2019-01-24T09:31:06.365Z,32.60
2019-01-24T09:33:08.104Z,30.20
2019-01-24T09:35:10.610Z,29.00
2019-01-24T09:37:12.256Z,29.60
2019-01-24T09:39:13.911Z,29.60
2019-01-24T09:41:15.569Z,23.20
2019-01-24T09:43:17.204Z,20.20
2019-01-24T09:45:20.772Z,16.10
2019-01-24T09:47:22.416Z,14.10
2019-01-24T09:49:24.071Z,13.70
2019-01-24T09:51:25.729Z,12.50
2019-01-24T09:53:27.376Z,10.80
2019-01-24T09:55:29.037Z,11.80
2019-01-24T09:57:30.690Z,12.00
2019-01-24T09:59:32.339Z,10.00
2019-01-24T10:01:34.268Z,9.80
2019-01-24T10:03:35.920Z,7.40
2019-01-24T10:05:37.589Z,6.10
2019-01-24T10:07:39.257Z,5.90
2019-01-24T10:09:40.916Z,8.60
2019-01-24T10:11:42.570Z,7.70
2019-01-24T10:13:44.212Z,8.50
2019-01-24T10:15:45.885Z,7.90
2019-01-24T10:17:47.535Z,9.20
2019-01-24T10:19:49.497Z,9.20
2019-01-24T10:21:51.140Z,10.60
2019-01-24T10:23:53.149Z,11.40
2019-01-24T10:25:54.801Z,13.30
2019-01-24T10:27:56.751Z,13.00
2019-01-24T10:29:58.816Z,11.50
2019-01-24T10:32:00.477Z,12.00
2019-01-24T10:34:02.148Z,13.40
2019-01-24T10:36:03.817Z,12.50
2019-01-24T10:38:05.469Z,10.50
2019-01-24T10:40:10.382Z,9.90
2019-01-24T10:42:12.037Z,10.30
2019-01-24T10:44:13.746Z,11.90
2019-01-24T10:46:15.393Z,10.30
2019-01-24T10:48:17.048Z,9.20
2019-01-24T10:50:19.973Z,10.80
2019-01-24T10:52:21.629Z,10.40
2019-01-24T10:54:23.285Z,10.00
2019-01-24T10:56:24.969Z,11.10
2019-01-24T10:58:26.619Z,11.00
2019-01-24T11:00:31.777Z,10.60
2019-01-24T11:02:33.435Z,9.90
2019-01-24T11:04:35.289Z,12.00
2019-01-24T11:06:36.968Z,13.70
2019-01-24T11:08:38.626Z,15.30
2019-01-24T11:10:40.286Z,14.50
2019-01-24T11:12:41.928Z,16.20
2019-01-24T11:14:43.609Z,15.80
2019-01-24T11:16:45.348Z,16.80
2019-01-24T11:18:47.041Z,16.40
2019-01-24T11:20:48.869Z,17.40
2019-01-24T11:22:50.632Z,17.90
2019-01-24T11:24:52.704Z,18.40
2019-01-24T11:26:54.684Z,18.90
2019-01-24T11:28:56.508Z,19.20
2019-01-24T11:30:58.613Z,18.90
2019-01-24T11:33:00.769Z,21.20
2019-01-24T11:35:02.740Z,19.60
2019-01-24T11:37:04.546Z,20.50
2019-01-24T11:39:06.312Z,23.20
2019-01-24T11:41:08.181Z,22.40
2019-01-24T11:43:10.282Z,22.50
2019-01-24T11:45:12.668Z,22.70
2019-01-24T11:47:14.528Z,21.50
2019-01-24T11:49:16.579Z,21.80
2019-01-24T11:51:18.321Z,22.90
2019-01-24T11:53:21.005Z,23.20
2019-01-24T11:55:22.672Z,22.40
2019-01-24T11:57:24.473Z,23.50
2019-01-24T11:59:26.549Z,23.60
2019-01-24T12:01:28.214Z,22.70
2019-01-24T12:03:30.014Z,24.20
2019-01-24T12:05:32.121Z,23.70
2019-01-24T12:07:35.551Z,22.90
2019-01-24T12:09:37.301Z,23.70
2019-01-24T12:11:40.035Z,22.70
2019-01-24T12:13:41.919Z,23.70
2019-01-24T12:15:46.510Z,24.30
2019-01-24T12:17:48.394Z,22.70
2019-01-24T12:19:52.537Z,24.80
2019-01-24T12:21:54.221Z,22.80
2019-01-24T12:23:56.076Z,23.40
2019-01-24T12:25:57.908Z,23.90
2019-01-24T12:27:59.596Z,24.30
2019-01-24T12:30:01.266Z,22.70
2019-01-24T12:32:03.024Z,23.60
2019-01-24T12:34:05.774Z,24.10
2019-01-24T12:36:07.757Z,23.90
2019-01-24T12:38:12.768Z,23.30
2019-01-24T12:40:14.480Z,23.90
2019-01-24T12:42:16.293Z,23.50
2019-01-24T12:44:17.945Z,24.00
2019-01-24T12:46:19.606Z,23.70
2019-01-24T12:48:21.763Z,24.60
2019-01-24T12:50:26.385Z,25.30
2019-01-24T12:52:28.197Z,23.90
2019-01-24T12:54:30.052Z,23.60
2019-01-24T12:56:31.746Z,23.50
2019-01-24T12:58:33.417Z,24.20
2019-01-24T13:00:36.809Z,24.30
2019-01-24T13:02:38.757Z,24.50
2019-01-24T13:04:40.768Z,24.10
2019-01-24T13:06:42.450Z,23.60
2019-01-24T13:08:44.101Z,25.40
2019-01-24T13:10:45.747Z,23.70
2019-01-24T13:12:47.462Z,24.60
2019-01-24T13:14:49.103Z,22.80
2019-01-24T13:16:50.759Z,24.40
2019-01-24T13:18:52.395Z,24.10
2019-01-24T13:20:54.049Z,24.40
2019-01-24T13:22:55.723Z,24.60
2019-01-24T13:24:57.374Z,25.50
2019-01-24T13:26:59.041Z,25.00
2019-01-24T13:29:00.701Z,26.10
2019-01-24T13:31:02.371Z,25.20
2019-01-24T13:33:04.963Z,27.00
2019-01-24T13:35:06.613Z,25.70
2019-01-24T13:37:08.269Z,26.10
2019-01-24T13:39:10.232Z,26.10
2019-01-24T13:41:11.881Z,27.60
2019-01-24T13:43:13.801Z,28.20
2019-01-24T13:45:17.824Z,27.70
2019-01-24T13:47:19.485Z,26.90
2019-01-24T13:49:21.141Z,27.80
2019-01-24T13:51:22.789Z,28.50
2019-01-24T13:53:24.453Z,28.80
2019-01-24T13:55:26.105Z,28.60
2019-01-24T13:57:27.766Z,28.20
2019-01-24T13:59:29.441Z,29.60
2019-01-24T14:01:31.432Z,29.10
2019-01-24T14:04:10.592Z,27.60
2019-01-24T14:06:12.277Z,29.10
2019-01-24T14:08:14.233Z,29.30
2019-01-24T14:10:16.001Z,29.50
2019-01-24T14:12:17.666Z,29.40
2019-01-24T14:14:19.345Z,28.90
2019-01-24T14:16:20.984Z,29.70
2019-01-24T14:18:22.681Z,28.30
2019-01-24T14:20:24.373Z,28.70
2019-01-24T14:22:26.039Z,29.50
2019-01-24T14:24:27.694Z,30.90
2019-01-24T14:26:29.374Z,30.20
2019-01-24T14:28:31.029Z,32.40
2019-01-24T14:30:32.672Z,32.30
2019-01-24T14:32:34.343Z,33.60
2019-01-24T14:34:36.241Z,34.10
2019-01-24T14:36:38.205Z,35.20
2019-01-24T14:38:40.177Z,35.60
2019-01-24T14:40:41.828Z,35.20
2019-01-24T14:42:43.650Z,36.30
2019-01-24T14:44:45.641Z,36.50
2019-01-24T14:46:47.285Z,37.40
2019-01-24T14:48:48.952Z,37.30
2019-01-24T14:50:50.788Z,38.50
2019-01-24T14:52:52.925Z,39.00
2019-01-24T14:54:57.572Z,40.10
2019-01-24T14:56:59.668Z,38.70
2019-01-24T14:59:01.407Z,39.80
2019-01-24T15:01:24.548Z,38.90
2019-01-24T15:03:26.957Z,39.60
2019-01-24T15:05:29.981Z,40.70
2019-01-24T15:07:34.135Z,42.00
2019-01-24T15:09:35.945Z,43.50
2019-01-24T15:11:37.732Z,42.70
2019-01-24T15:13:39.685Z,43.50
2019-01-24T15:15:42.104Z,43.90
2019-01-24T15:17:46.620Z,44.00
2019-01-24T15:19:48.390Z,45.20
2019-01-24T15:21:52.237Z,45.00
2019-01-24T15:23:53.891Z,46.10
2019-01-24T15:25:55.533Z,45.40
2019-01-24T15:27:57.196Z,45.70
2019-01-24T15:29:58.901Z,46.00
2019-01-24T15:32:03.376Z,46.80
2019-01-24T15:34:05.246Z,46.60
2019-01-24T15:36:07.095Z,44.70
2019-01-24T15:38:08.824Z,45.90
2019-01-24T15:40:16.649Z,46.80
2019-01-24T15:42:18.449Z,46.40
2019-01-24T15:44:20.269Z,46.10
2019-01-24T15:46:22.205Z,46.20
2019-01-24T15:48:24.041Z,46.50
2019-01-24T15:50:25.873Z,47.70
2019-01-24T15:52:33.900Z,47.90
2019-01-24T15:54:31.161Z,47.70
2019-01-24T15:56:34.691Z,47.20
2019-01-24T15:58:36.360Z,47.80
2019-01-24T16:00:38.260Z,48.20
2019-01-24T16:02:39.918Z,49.20
2019-01-24T16:04:41.577Z,50.00
2019-01-24T16:06:43.414Z,49.90
2019-01-24T16:08:45.781Z,50.90
2019-01-24T16:10:47.946Z,50.60
2019-01-24T16:12:49.896Z,50.20
2019-01-24T16:14:51.547Z,50.40
2019-01-24T16:16:53.629Z,50.00
2019-01-24T16:18:55.292Z,50.10
2019-01-24T16:20:57.107Z,51.20
2019-01-24T16:22:59.183Z,51.80
2019-01-24T16:25:00.841Z,52.40
2019-01-24T16:27:02.677Z,52.60
2019-01-24T16:29:04.445Z,52.70
2019-01-24T16:31:06.508Z,53.10
2019-01-24T16:33:08.358Z,52.70
2019-01-24T16:35:10.678Z,53.10
2019-01-24T16:37:12.394Z,53.50
2019-01-24T16:39:14.052Z,54.00
2019-01-24T16:41:15.700Z,54.10
2019-01-24T16:43:17.349Z,53.40
2019-01-24T16:45:20.751Z,52.80
2019-01-24T16:47:22.405Z,53.00
2019-01-24T16:49:24.055Z,52.40
2019-01-24T16:51:25.706Z,52.80
2019-01-24T16:53:27.362Z,53.70
2019-01-24T16:55:29.272Z,54.00
2019-01-24T16:57:31.247Z,53.40
2019-01-24T16:59:32.971Z,53.70
2019-01-24T17:01:34.965Z,54.10
2019-01-24T17:03:36.627Z,53.90
2019-01-24T17:05:38.329Z,53.90
2019-01-24T17:07:40.046Z,53.20
2019-01-24T17:09:41.740Z,53.20
2019-01-24T17:11:43.393Z,54.40
2019-01-24T17:13:45.045Z,54.80
2019-01-24T17:15:47.053Z,55.40
2019-01-24T17:17:48.696Z,54.20
2019-01-24T17:19:50.677Z,53.60
2019-01-24T17:21:52.571Z,53.60
2019-01-24T17:23:54.395Z,53.80
2019-01-24T17:28:07.673Z,53.60
2019-01-24T17:30:12.344Z,53.20
2019-01-24T17:32:14.185Z,52.90
2019-01-24T17:34:16.236Z,52.90
2019-01-24T17:36:20.407Z,53.10
2019-01-24T17:38:24.126Z,53.40
2019-01-24T17:40:27.867Z,52.70
2019-01-24T17:42:29.522Z,52.40
2019-01-24T17:44:33.115Z,52.40
2019-01-24T17:46:34.781Z,52.80
2019-01-24T17:48:36.421Z,53.20
2019-01-24T17:50:38.103Z,54.20
2019-01-24T17:52:39.759Z,56.20
2019-01-24T17:54:41.408Z,55.80
2019-01-24T17:56:43.060Z,56.30
2019-01-24T17:58:44.725Z,57.20
2019-01-24T18:00:49.069Z,57.00
2019-01-24T18:02:50.739Z,55.80
2019-01-24T18:04:53.619Z,56.30
2019-01-24T18:06:55.349Z,56.40
2019-01-24T18:08:57.079Z,56.80
2019-01-24T18:10:59.073Z,56.30
2019-01-24T18:13:03.084Z,56.70
2019-01-24T18:15:07.622Z,56.40
2019-01-24T18:17:09.285Z,56.30
2019-01-24T18:19:10.935Z,57.10
2019-01-24T18:21:12.848Z,57.60
2019-01-24T18:23:14.589Z,54.90
2019-01-24T18:25:16.295Z,55.70
2019-01-24T18:27:18.230Z,57.80
2019-01-24T18:29:19.897Z,58.80
2019-01-24T18:31:21.722Z,59.90
2019-01-24T18:33:23.553Z,61.50
2019-01-24T18:35:25.477Z,60.90
2019-01-24T18:37:27.473Z,61.10
2019-01-24T18:39:29.336Z,61.20
2019-01-24T18:41:31.168Z,61.70
2019-01-24T18:43:34.046Z,62.40
2019-01-24T18:45:42.965Z,60.90
2019-01-24T18:47:44.917Z,61.70
2019-01-24T18:49:46.724Z,60.90
2019-01-24T18:51:48.556Z,61.00
2019-01-24T18:53:50.579Z,61.80
2019-01-24T18:55:52.209Z,60.70
2019-01-24T18:57:54.974Z,61.40
2019-01-24T18:59:56.737Z,61.80
2019-01-24T19:02:00.721Z,61.10
2019-01-24T19:04:02.348Z,61.20
2019-01-24T19:06:06.585Z,61.40
2019-01-24T19:08:08.356Z,61.40
2019-01-24T19:10:10.122Z,61.90
2019-01-24T19:12:11.992Z,62.10
2019-01-24T19:14:13.642Z,61.40
2019-01-24T19:16:15.780Z,61.10
2019-01-24T19:18:17.670Z,60.90
2019-01-24T19:20:21.752Z,61.10
2019-01-24T19:22:23.576Z,61.30
2019-01-24T19:24:25.590Z,61.50
2019-01-24T19:26:27.452Z,60.80
2019-01-24T19:28:29.469Z,60.70
2019-01-24T19:30:31.561Z,59.80
2019-01-24T19:32:33.529Z,59.60
2019-01-24T19:34:35.176Z,59.80
2019-01-24T19:36:36.855Z,59.90
2019-01-24T19:38:38.644Z,59.60
2019-01-24T19:40:40.299Z,59.60
2019-01-24T19:42:43.650Z,58.60
2019-01-24T19:44:45.498Z,58.40
2019-01-24T19:46:47.452Z,59.30
2019-01-24T19:48:49.445Z,60.20
2019-01-24T19:50:51.147Z,59.60
2019-01-24T19:52:52.832Z,60.50
2019-01-24T19:54:54.619Z,60.70
2019-01-24T19:56:56.278Z,59.50
2019-01-24T19:58:58.246Z,58.30
2019-01-24T20:01:00.161Z,58.00
2019-01-24T20:03:02.468Z,55.30
2019-01-24T20:05:04.953Z,52.30
2019-01-24T20:07:06.608Z,55.60
2019-01-24T20:09:08.496Z,57.00
2019-01-24T20:11:10.176Z,57.00
2019-01-24T20:13:11.846Z,55.30
2019-01-24T20:15:20.410Z,55.30
2019-01-24T20:17:22.062Z,54.40
2019-01-24T20:19:23.741Z,54.80
2019-01-24T20:21:25.397Z,55.00
2019-01-24T20:23:27.057Z,53.00
2019-01-24T20:25:29.690Z,53.10
2019-01-24T20:27:31.336Z,53.10
2019-01-24T20:29:33.008Z,54.20
2019-01-24T20:31:34.678Z,54.20
2019-01-24T20:33:36.325Z,54.10
2019-01-24T20:35:43.764Z,51.10
2019-01-24T20:37:45.445Z,51.00
2019-01-24T20:39:48.414Z,51.50
2019-01-24T20:41:50.100Z,51.60
2019-01-24T20:43:51.752Z,51.10
2019-01-24T20:45:53.413Z,52.50
2019-01-24T20:47:55.078Z,52.60
2019-01-24T20:49:56.769Z,53.50
2019-01-24T20:51:58.461Z,52.60
2019-01-24T20:54:00.399Z,52.40
2019-01-24T20:56:02.128Z,52.60
2019-01-24T20:58:04.175Z,52.80
2019-01-24T21:00:10.141Z,53.50
2019-01-24T21:02:12.073Z,55.30
2019-01-24T21:04:15.077Z,55.80
2019-01-24T21:06:16.836Z,56.30
2019-01-24T21:08:18.769Z,58.60
2019-01-24T21:10:22.309Z,58.90
2019-01-24T21:12:23.998Z,59.00
2019-01-24T21:14:25.660Z,60.60
2019-01-24T21:16:27.311Z,61.60
2019-01-24T21:18:28.973Z,63.40
2019-01-24T21:20:30.656Z,63.30
2019-01-24T21:22:32.316Z,63.70
2019-01-24T21:24:34.033Z,65.10
2019-01-24T21:26:35.691Z,67.00
2019-01-24T21:28:37.332Z,65.50
2019-01-24T21:30:38.992Z,67.70
2019-01-24T21:32:40.648Z,67.30
2019-01-24T21:34:42.482Z,67.20
2019-01-24T21:36:44.453Z,68.90
2019-01-24T21:38:46.105Z,68.60
2019-01-24T21:40:47.785Z,70.20
2019-01-24T21:42:52.609Z,71.00
2019-01-24T21:44:54.354Z,70.10
2019-01-24T21:46:56.006Z,71.10
2019-01-24T21:48:58.004Z,71.00
2019-01-24T21:50:59.659Z,71.20
2019-01-24T21:53:01.332Z,72.10
2019-01-24T21:55:03.853Z,72.80
2019-01-24T21:57:05.505Z,72.90
2019-01-24T21:59:07.169Z,74.00
2019-01-24T22:01:08.821Z,76.00
2019-01-24T22:03:10.497Z,77.60
2019-01-24T22:05:12.505Z,78.10
2019-01-24T22:07:14.180Z,80.50
2019-01-24T22:09:15.844Z,82.10
2019-01-24T22:11:17.647Z,82.20
2019-01-24T22:13:19.605Z,82.10
2019-01-24T22:15:23.145Z,82.20
2019-01-24T22:17:24.806Z,80.40
2019-01-24T22:19:26.817Z,78.80
2019-01-24T22:21:28.476Z,79.40
2019-01-24T22:23:30.125Z,80.50
2019-01-24T22:25:33.017Z,79.20
2019-01-24T22:27:34.665Z,78.70
2019-01-24T22:29:36.324Z,78.20
2019-01-24T22:31:39.129Z,78.20
2019-01-24T22:33:40.937Z,79.40
2019-01-24T22:35:42.595Z,79.90
2019-01-24T22:37:44.246Z,80.40
2019-01-24T22:39:45.888Z,79.00
2019-01-24T22:41:47.540Z,77.50
2019-01-24T22:43:49.201Z,77.40
2019-01-24T22:45:51.568Z,78.20
2019-01-24T22:47:53.223Z,78.50
2019-01-24T22:49:54.877Z,79.30
2019-01-24T22:51:56.529Z,79.60
2019-01-24T22:53:58.189Z,79.00
2019-01-24T22:55:59.846Z,79.00
2019-01-24T22:58:01.609Z,79.50
2019-01-24T23:00:09.896Z,81.20
2019-01-24T23:02:21.562Z,82.00
2019-01-24T23:04:23.949Z,82.10
2019-01-24T23:06:25.621Z,82.70
2019-01-24T23:08:27.273Z,81.50
2019-01-24T23:10:29.192Z,82.20
2019-01-24T23:12:30.948Z,83.50
2019-01-24T23:14:32.879Z,81.40
2019-01-24T23:16:34.540Z,82.80
2019-01-24T23:18:36.229Z,81.50
2019-01-24T23:20:37.888Z,78.70
2019-01-24T23:22:39.532Z,78.60
2019-01-24T23:24:41.197Z,78.30
2019-01-24T23:26:42.856Z,77.90
2019-01-24T23:28:44.777Z,77.00
2019-01-24T23:30:46.446Z,78.80
2019-01-24T23:32:48.385Z,77.20
2019-01-24T23:34:50.034Z,78.30
2019-01-24T23:36:51.988Z,76.70
2019-01-24T23:38:53.645Z,76.00
2019-01-24T23:40:55.606Z,75.80
2019-01-24T23:42:57.297Z,73.90
2019-01-24T23:44:58.949Z,73.90
2019-01-24T23:47:00.611Z,74.80
2019-01-24T23:49:02.265Z,76.10
2019-01-24T23:51:03.925Z,75.40
2019-01-24T23:53:05.572Z,75.50
2019-01-24T23:55:07.225Z,75.00
2019-01-24T23:57:08.889Z,73.80
2019-01-24T23:59:10.538Z,73.40
